Time;durP1;ratioP1;P1;durP2;ratioP2;P2;SDS_P1;SDS_P2;PMS_P1;PMS_P2;Temp;Humidity;BMP_temperature;BMP_pressure;BME280_temperature;BME280_humidity;BME280_pressure;Samples;Min_cycle;Max_cycle;Signal;HPM_P1;HPM_P2
2023/10/22 00:02:20;;;;;;;15.30;6.50;;;16.30;96.70;;;;;;5010124;28;20459;-79
2023/10/22 00:04:49;;;;;;;12.02;7.07;;;16.30;96.70;;;;;;5004502;28;20050;-79
2023/10/22 00:07:18;;;;;;;10.73;7.35;;;16.30;96.70;;;;;;5005510;28;20061;-80
2023/10/22 00:09:47;;;;;;;9.27;6.28;;;16.30;96.70;;;;;;5006439;28;20054;-79
2023/10/22 00:12:17;;;;;;;15.32;6.80;;;16.30;96.70;;;;;;5007118;28;20507;-80
2023/10/22 00:14:48;;;;;;;15.13;6.70;;;16.40;96.70;;;;;;5014839;28;20052;-79
2023/10/22 00:17:18;;;;;;;13.50;6.95;;;16.30;96.70;;;;;;5011370;28;20042;-79
2023/10/22 00:19:47;;;;;;;18.73;7.50;;;16.30;96.70;;;;;;5006703;28;20038;-79
2023/10/22 00:22:17;;;;;;;17.33;7.40;;;16.20;96.70;;;;;;5002986;28;20046;-79
2023/10/22 00:24:47;;;;;;;21.02;6.63;;;16.20;96.70;;;;;;5003457;28;20511;-80
2023/10/22 00:27:16;;;;;;;15.70;7.38;;;16.20;96.70;;;;;;5009863;28;20050;-79
2023/10/22 00:29:48;;;;;;;11.57;6.78;;;16.30;96.70;;;;;;5011748;28;20136;-79
2023/10/22 00:32:18;;;;;;;12.40;7.18;;;16.30;96.70;;;;;;5003726;28;20058;-79
2023/10/22 00:34:49;;;;;;;9.88;6.90;;;16.30;96.70;;;;;;4984835;28;20884;-79
2023/10/22 00:37:18;;;;;;;10.40;6.22;;;16.30;96.70;;;;;;4995790;28;20478;-79
2023/10/22 00:39:47;;;;;;;13.68;7.03;;;16.30;96.70;;;;;;4987463;28;20071;-78
2023/10/22 00:42:15;;;;;;;11.88;7.00;;;16.30;96.70;;;;;;5003087;28;20077;-79
2023/10/22 00:44:44;;;;;;;12.25;6.65;;;16.30;96.70;;;;;;5004630;28;20124;-79
2023/10/22 00:47:16;;;;;;;10.45;6.10;;;16.40;96.70;;;;;;4999011;28;20069;-79
2023/10/22 00:49:47;;;;;;;7.97;6.30;;;16.40;96.70;;;;;;5002488;28;20065;-79
2023/10/22 00:52:19;;;;;;;9.27;6.65;;;16.40;96.70;;;;;;5003181;28;20545;-79
2023/10/22 00:54:50;;;;;;;13.60;7.18;;;16.40;96.70;;;;;;4996852;28;20589;-79
2023/10/22 00:57:19;;;;;;;13.93;6.70;;;16.30;96.70;;;;;;4992238;28;20034;-80
2023/10/22 00:59:50;;;;;;;7.72;6.38;;;16.30;96.70;;;;;;5003756;28;20148;-80
2023/10/22 01:02:22;;;;;;;15.00;6.78;;;16.30;96.70;;;;;;5005916;28;20052;-79
2023/10/22 01:04:53;;;;;;;13.05;6.60;;;16.30;96.70;;;;;;5006564;28;20050;-80
2023/10/22 01:07:23;;;;;;;13.77;5.65;;;16.30;96.70;;;;;;5004376;28;20060;-79
2023/10/22 01:09:52;;;;;;;11.52;5.15;;;16.20;96.70;;;;;;5002475;28;20046;-79
2023/10/22 01:12:22;;;;;;;12.88;5.70;;;16.20;96.70;;;;;;5020095;28;20046;-79
2023/10/22 01:14:51;;;;;;;37.20;6.75;;;16.10;96.70;;;;;;5011672;28;20152;-79
2023/10/22 01:17:22;;;;;;;11.82;5.40;;;16.10;96.70;;;;;;4984119;28;20054;-79
2023/10/22 01:19:52;;;;;;;14.80;5.07;;;16.10;96.70;;;;;;5001420;28;20050;-80
2023/10/22 01:22:23;;;;;;;10.48;5.60;;;16.10;96.70;;;;;;5002773;28;20482;-80
2023/10/22 01:24:55;;;;;;;6.95;4.65;;;16.10;96.70;;;;;;5003144;28;20100;-80
2023/10/22 01:27:25;;;;;;;18.23;4.88;;;16.10;96.70;;;;;;5001941;28;20073;-79
2023/10/22 01:29:56;;;;;;;10.93;4.85;;;16.10;96.70;;;;;;5021744;28;20092;-80
2023/10/22 01:32:31;;;;;;;9.20;3.75;;;16.10;96.70;;;;;;5010009;28;20064;-78
2023/10/22 01:35:02;;;;;;;22.27;4.25;;;16.10;96.70;;;;;;5015268;28;20142;-79
2023/10/22 01:37:33;;;;;;;44.42;5.00;;;16.10;96.70;;;;;;5006711;28;20038;-80
2023/10/22 01:40:07;;;;;;;12.50;3.40;;;16.00;96.70;;;;;;5009538;28;20045;-80
2023/10/22 01:42:37;;;;;;;10.95;3.20;;;16.00;96.70;;;;;;5016312;28;20219;-80
2023/10/22 01:45:08;;;;;;;8.48;3.03;;;16.00;96.70;;;;;;5009256;28;20050;-79
2023/10/22 01:47:38;;;;;;;12.15;3.50;;;16.10;96.70;;;;;;5017017;28;20049;-79
2023/10/22 01:50:08;;;;;;;7.15;2.50;;;16.10;96.70;;;;;;5024939;28;20052;-79
2023/10/22 01:52:39;;;;;;;4.65;2.72;;;16.10;96.70;;;;;;5009445;28;20050;-80
2023/10/22 01:55:10;;;;;;;5.30;2.72;;;16.10;96.70;;;;;;5005964;28;20463;-79
2023/10/22 01:57:40;;;;;;;3.97;3.00;;;16.00;96.70;;;;;;5001186;28;20046;-79
2023/10/22 02:00:11;;;;;;;4.65;2.67;;;16.00;96.70;;;;;;5012805;28;20053;-79
2023/10/22 02:02:44;;;;;;;6.38;3.15;;;15.90;96.70;;;;;;5013679;28;20135;-79
2023/10/22 02:05:14;;;;;;;7.22;3.00;;;15.90;96.70;;;;;;5006343;28;20149;-79
2023/10/22 02:07:44;;;;;;;7.57;3.40;;;15.90;96.70;;;;;;5016400;28;20052;-79
2023/10/22 02:10:15;;;;;;;10.25;3.65;;;15.90;96.70;;;;;;5016585;28;20050;-79
2023/10/22 02:12:45;;;;;;;4.78;2.70;;;15.90;96.70;;;;;;5010396;28;20507;-78
2023/10/22 02:15:15;;;;;;;5.85;3.28;;;15.90;96.70;;;;;;5005108;28;20042;-79
2023/10/22 02:17:44;;;;;;;5.68;3.67;;;15.90;96.70;;;;;;5014967;28;20041;-79
2023/10/22 02:20:14;;;;;;;7.88;3.90;;;15.90;96.70;;;;;;5015319;28;20140;-79
2023/10/22 02:22:43;;;;;;;14.90;4.53;;;15.90;96.70;;;;;;5007059;28;20466;-78
2023/10/22 02:25:15;;;;;;;8.80;4.50;;;15.80;96.70;;;;;;5005262;28;20054;-80
2023/10/22 02:27:45;;;;;;;10.95;4.82;;;15.70;96.70;;;;;;5011462;28;20099;-79
2023/10/22 02:30:15;;;;;;;8.32;5.72;;;15.70;96.70;;;;;;5012788;28;20042;-78
2023/10/22 02:32:45;;;;;;;11.00;6.03;;;15.80;96.70;;;;;;5017701;28;20053;-79
2023/10/22 02:35:15;;;;;;;11.27;6.22;;;15.80;96.70;;;;;;5004165;28;20053;-78
2023/10/22 02:37:44;;;;;;;12.75;6.90;;;15.80;96.70;;;;;;5006010;28;20550;-79
2023/10/22 02:40:16;;;;;;;14.32;6.20;;;15.70;96.70;;;;;;5009938;28;20079;-78
2023/10/22 02:42:44;;;;;;;14.35;6.78;;;15.80;96.70;;;;;;5002743;28;20049;-79
2023/10/22 02:45:12;;;;;;;12.10;6.70;;;15.80;96.70;;;;;;5004195;28;20577;-79
2023/10/22 02:47:40;;;;;;;8.98;5.78;;;15.80;96.70;;;;;;4996676;28;20050;-79
2023/10/22 02:50:09;;;;;;;7.15;5.65;;;15.80;96.70;;;;;;5003532;28;20063;-80
2023/10/22 02:52:37;;;;;;;7.68;5.05;;;15.80;96.70;;;;;;5004947;28;20499;-80
2023/10/22 02:55:06;;;;;;;10.52;4.72;;;15.80;96.70;;;;;;5005129;28;20145;-80
2023/10/22 02:57:36;;;;;;;9.65;4.60;;;15.80;96.70;;;;;;4986445;28;20488;-79
2023/10/22 03:00:10;;;;;;;5.80;3.85;;;15.70;96.70;;;;;;5004785;28;21188;-79
2023/10/22 03:02:51;;;;;;;;;;;15.70;96.70;;;;;;5006277;28;20443;-78
2023/10/22 03:05:19;;;;;;;5.13;3.20;;;15.70;96.70;;;;;;5001842;28;19925;-79
2023/10/22 03:07:47;;;;;;;6.10;3.47;;;15.70;96.70;;;;;;5004266;28;20048;-77
2023/10/22 03:10:15;;;;;;;8.57;3.45;;;15.80;96.70;;;;;;5006107;28;20066;-77
2023/10/22 03:12:45;;;;;;;14.93;3.40;;;15.70;96.70;;;;;;5015541;28;20049;-79
2023/10/22 03:15:13;;;;;;;7.22;2.90;;;15.60;96.70;;;;;;5014708;28;20442;-78
2023/10/22 03:17:41;;;;;;;7.40;3.83;;;15.60;96.70;;;;;;5010768;28;20045;-79
2023/10/22 03:20:10;;;;;;;6.53;3.38;;;15.70;96.70;;;;;;5018904;28;20041;-79
2023/10/22 03:22:38;;;;;;;4.57;3.88;;;15.60;96.70;;;;;;5002111;28;20050;-79
2023/10/22 03:25:07;;;;;;;4.20;3.10;;;15.50;96.70;;;;;;5000687;28;20364;-79
2023/10/22 03:27:36;;;;;;;5.13;3.10;;;15.60;96.70;;;;;;5008155;28;20048;-79
2023/10/22 03:30:10;;;;;;;5.05;3.63;;;15.60;96.70;;;;;;5016253;28;20140;-78
2023/10/22 03:32:39;;;;;;;5.85;3.60;;;15.60;96.70;;;;;;5022770;28;20526;-78
2023/10/22 03:35:08;;;;;;;4.85;3.58;;;15.60;96.70;;;;;;5009898;28;20068;-80
2023/10/22 03:37:36;;;;;;;4.10;3.42;;;15.60;96.70;;;;;;5015037;28;20045;-79
2023/10/22 03:40:09;;;;;;;3.75;2.78;;;15.60;96.70;;;;;;4999275;28;20521;-78
2023/10/22 03:42:38;;;;;;;5.68;3.92;;;15.60;96.70;;;;;;4989825;28;20053;-79
2023/10/22 03:45:09;;;;;;;4.50;3.38;;;15.60;96.70;;;;;;5013869;28;20384;-79
2023/10/22 03:47:37;;;;;;;3.97;3.30;;;15.60;96.70;;;;;;5013772;28;20064;-79
2023/10/22 03:50:07;;;;;;;5.55;3.50;;;15.60;96.70;;;;;;5014180;28;20053;-80
2023/10/22 03:52:36;;;;;;;5.25;3.50;;;15.60;96.70;;;;;;5005410;28;20042;-80
2023/10/22 03:55:11;;;;;;;5.25;3.40;;;15.60;96.70;;;;;;4987820;28;20190;-80
2023/10/22 03:57:39;;;;;;;4.00;3.08;;;15.60;96.70;;;;;;5003071;28;20119;-79
2023/10/22 04:00:10;;;;;;;6.28;3.65;;;15.50;96.70;;;;;;5007068;28;20045;-79
2023/10/22 04:02:39;;;;;;;4.53;2.92;;;15.40;96.70;;;;;;5006323;28;20456;-80
2023/10/22 04:05:08;;;;;;;6.82;3.42;;;15.40;96.70;;;;;;5003173;28;20038;-79
2023/10/22 04:07:36;;;;;;;4.80;3.35;;;15.40;96.70;;;;;;5005051;28;20056;-80
2023/10/22 04:10:09;;;;;;;4.97;3.15;;;15.40;96.70;;;;;;5003017;28;20041;-80
2023/10/22 04:12:42;;;;;;;5.05;3.13;;;15.40;96.70;;;;;;5007199;28;20049;-78
2023/10/22 04:15:12;;;;;;;3.67;2.88;;;15.40;96.70;;;;;;5015299;28;20052;-78
2023/10/22 04:17:40;;;;;;;9.75;3.50;;;15.40;96.70;;;;;;5022363;28;20046;-78
2023/10/22 04:20:09;;;;;;;5.38;3.20;;;15.40;96.70;;;;;;5011468;28;20046;-78
2023/10/22 04:22:40;;;;;;;6.53;4.20;;;15.40;96.70;;;;;;5002712;28;20040;-79
2023/10/22 04:25:11;;;;;;;7.88;4.25;;;15.50;96.70;;;;;;5003464;28;20050;-78
2023/10/22 04:27:40;;;;;;;6.32;4.20;;;15.50;96.70;;;;;;5003264;28;20068;-78
2023/10/22 04:30:12;;;;;;;6.63;3.95;;;15.40;96.70;;;;;;5012149;28;20491;-79
2023/10/22 04:32:42;;;;;;;7.68;4.25;;;15.40;96.70;;;;;;5005367;28;20140;-78
2023/10/22 04:35:13;;;;;;;5.75;3.65;;;15.40;96.70;;;;;;5001775;28;20070;-79
2023/10/22 04:37:43;;;;;;;6.80;4.00;;;15.30;96.70;;;;;;5007849;28;20091;-79
2023/10/22 04:40:12;;;;;;;6.18;3.92;;;15.30;96.70;;;;;;5008380;28;20042;-79
2023/10/22 04:42:41;;;;;;;4.03;3.10;;;15.30;96.70;;;;;;5003451;28;20034;-78
2023/10/22 04:45:12;;;;;;;5.18;3.65;;;15.30;96.70;;;;;;5001996;28;20045;-79
2023/10/22 04:47:43;;;;;;;6.80;3.40;;;15.30;96.70;;;;;;5011136;28;20060;-80
2023/10/22 04:50:14;;;;;;;9.00;3.20;;;15.30;96.70;;;;;;5023204;28;20520;-78
2023/10/22 04:52:42;;;;;;;8.93;4.13;;;15.20;96.70;;;;;;5003314;28;20389;-78
2023/10/22 04:55:15;;;;;;;7.95;3.80;;;15.30;96.70;;;;;;5003745;28;20042;-79
2023/10/22 04:57:45;;;;;;;7.80;3.85;;;15.30;96.70;;;;;;5019189;28;20050;-78
2023/10/22 05:00:17;;;;;;;7.43;3.50;;;15.30;96.70;;;;;;5000523;28;20051;-79
2023/10/22 05:02:46;;;;;;;8.35;3.75;;;15.30;96.70;;;;;;5003691;28;20418;-79
2023/10/22 05:05:16;;;;;;;14.95;2.95;;;15.30;96.70;;;;;;5002614;28;20774;-79
2023/10/22 05:07:45;;;;;;;20.40;3.40;;;15.40;96.70;;;;;;5016435;28;20068;-78
2023/10/22 05:10:15;;;;;;;18.33;3.30;;;15.30;96.70;;;;;;5012114;28;20513;-79
2023/10/22 05:12:45;;;;;;;12.98;3.00;;;15.30;96.70;;;;;;5011611;28;20057;-79
2023/10/22 05:15:18;;;;;;;30.10;4.10;;;15.40;96.70;;;;;;5008586;28;20049;-78
2023/10/22 05:17:48;;;;;;;21.85;3.20;;;15.30;96.70;;;;;;5017995;28;20508;-79
2023/10/22 05:20:31;;;;;;;21.10;3.17;;;15.40;96.70;;;;;;5015925;28;20141;-79
2023/10/22 05:22:59;;;;;;;30.15;3.28;;;15.30;96.70;;;;;;4997340;28;20050;-78
2023/10/22 05:25:27;;;;;;;16.75;2.42;;;15.30;96.70;;;;;;5002802;28;20041;-79
2023/10/22 05:27:55;;;;;;;11.77;2.67;;;15.20;96.70;;;;;;5015769;28;20041;-79
2023/10/22 05:30:24;;;;;;;18.10;3.20;;;15.30;96.70;;;;;;5004458;28;20049;-78
2023/10/22 05:32:52;;;;;;;20.88;3.05;;;15.30;96.70;;;;;;5007068;28;20534;-79
2023/10/22 05:35:19;;;;;;;26.65;3.60;;;15.30;96.70;;;;;;5002369;28;20414;-78
2023/10/22 05:37:49;;;;;;;27.10;3.30;;;15.30;96.70;;;;;;5004050;28;20645;-79
2023/10/22 05:40:17;;;;;;;24.00;3.10;;;15.20;96.70;;;;;;5008867;28;20045;-79
2023/10/22 05:42:53;;;;;;;27.17;3.38;;;15.20;96.70;;;;;;5010570;28;20054;-79
2023/10/22 05:46:30;;;;;;;25.73;3.67;;;15.30;96.70;;;;;;4996677;28;20172;-78
2023/10/22 05:49:00;;;;;;;25.85;3.05;;;15.30;96.70;;;;;;4979279;28;20068;-79
2023/10/22 05:51:30;;;;;;;34.58;3.30;;;15.20;96.70;;;;;;5007066;28;20596;-79
2023/10/22 05:53:59;;;;;;;46.75;3.83;;;15.20;96.70;;;;;;5002794;28;20667;-78
2023/10/22 05:56:29;;;;;;;10.43;2.75;;;15.10;96.70;;;;;;5001984;28;20041;-78
2023/10/22 05:59:04;;;;;;;16.83;2.88;;;15.10;96.70;;;;;;5002208;28;20144;-78
2023/10/22 06:01:38;;;;;;;13.02;2.53;;;15.10;96.70;;;;;;5002355;28;20045;-79
2023/10/22 06:04:08;;;;;;;14.38;2.60;;;15.20;96.70;;;;;;5003358;28;20594;-78
2023/10/22 06:06:37;;;;;;;16.35;2.10;;;15.10;96.70;;;;;;5002837;28;20125;-78
2023/10/22 06:09:05;;;;;;;16.02;2.38;;;15.00;96.70;;;;;;5001842;28;20145;-79
2023/10/22 06:11:38;;;;;;;29.25;2.50;;;15.10;96.70;;;;;;5011325;28;20893;-79
2023/10/22 06:14:07;;;;;;;33.42;3.28;;;15.10;96.70;;;;;;5003841;28;20050;-77
2023/10/22 06:16:42;;;;;;;9.13;1.95;;;15.10;96.70;;;;;;5000716;28;20092;-78
2023/10/22 06:19:13;;;;;;;25.27;2.30;;;15.10;96.70;;;;;;5004405;28;20454;-78
2023/10/22 06:21:42;;;;;;;13.32;1.77;;;15.10;96.70;;;;;;5006135;28;20042;-78
2023/10/22 06:24:11;;;;;;;13.15;1.80;;;15.20;96.70;;;;;;5006295;28;20042;-77
2023/10/22 06:26:41;;;;;;;8.23;1.83;;;15.20;96.70;;;;;;5011282;28;20092;-78
2023/10/22 06:29:11;;;;;;;12.88;2.17;;;15.20;96.70;;;;;;5009293;28;20045;-78
2023/10/22 06:31:42;;;;;;;8.38;1.70;;;15.20;96.70;;;;;;5007819;28;20054;-79
2023/10/22 06:34:12;;;;;;;10.60;1.70;;;15.30;96.70;;;;;;5019330;28;20620;-79
2023/10/22 06:36:43;;;;;;;17.08;1.77;;;15.20;96.70;;;;;;5007213;28;20072;-78
2023/10/22 06:39:13;;;;;;;5.95;1.50;;;15.20;96.70;;;;;;5001093;28;20061;-78
2023/10/22 06:41:42;;;;;;;13.77;2.22;;;15.20;96.70;;;;;;5005330;28;20038;-78
2023/10/22 06:44:17;;;;;;;18.73;2.03;;;15.30;96.70;;;;;;4994446;28;20058;-78
2023/10/22 06:46:49;;;;;;;12.45;1.60;;;15.30;96.70;;;;;;5008177;28;20159;-79
2023/10/22 06:49:19;;;;;;;11.80;1.75;;;15.30;96.70;;;;;;5021009;28;20099;-78
2023/10/22 06:51:49;;;;;;;13.18;2.13;;;15.40;96.70;;;;;;5019612;28;20069;-79
2023/10/22 06:54:22;;;;;;;11.55;1.95;;;15.50;96.70;;;;;;5006100;28;20048;-77
2023/10/22 06:56:51;;;;;;;7.13;1.80;;;15.50;96.70;;;;;;5004827;28;20057;-78
2023/10/22 06:59:22;;;;;;;12.38;2.00;;;15.50;96.70;;;;;;5005189;28;20112;-79
2023/10/22 07:01:56;;;;;;;8.98;2.28;;;15.60;96.70;;;;;;5010362;28;20115;-78
2023/10/22 07:04:27;;;;;;;3.55;2.13;;;15.60;96.70;;;;;;5016662;28;20061;-78
2023/10/22 07:06:56;;;;;;;13.70;3.95;;;15.70;96.70;;;;;;5008220;28;20130;-78
2023/10/22 07:09:25;;;;;;;7.78;3.22;;;15.60;96.70;;;;;;5018301;28;20045;-78
2023/10/22 07:11:55;;;;;;;5.75;3.58;;;15.60;96.70;;;;;;5008640;28;20659;-78
2023/10/22 07:14:24;;;;;;;8.75;5.30;;;15.70;96.70;;;;;;5013521;28;20049;-79
2023/10/22 07:16:52;;;;;;;5.55;2.80;;;15.80;96.70;;;;;;5004878;28;20085;-82
2023/10/22 07:19:21;;;;;;;12.40;2.55;;;15.80;96.70;;;;;;5001762;28;20057;-81
2023/10/22 07:21:48;;;;;;;7.20;2.15;;;15.80;96.70;;;;;;4998273;28;20042;-81
2023/10/22 07:24:17;;;;;;;11.00;1.52;;;15.90;96.70;;;;;;5006987;28;20073;-82
2023/10/22 07:26:46;;;;;;;4.47;2.03;;;15.90;96.70;;;;;;5015031;28;20046;-82
2023/10/22 07:29:16;;;;;;;8.20;2.10;;;16.00;96.70;;;;;;5006162;28;20046;-82
2023/10/22 07:31:48;;;;;;;6.35;2.50;;;16.00;96.70;;;;;;5006794;28;20077;-82
2023/10/22 07:34:20;;;;;;;5.97;2.25;;;16.00;96.70;;;;;;5001925;28;20069;-82
2023/10/22 07:36:52;;;;;;;12.88;2.58;;;16.00;96.70;;;;;;5007581;28;20130;-82
2023/10/22 07:39:22;;;;;;;5.03;3.40;;;16.10;96.70;;;;;;5007653;28;20084;-82
2023/10/22 07:41:51;;;;;;;4.10;2.67;;;16.10;96.70;;;;;;5008830;28;20044;-82
2023/10/22 07:44:21;;;;;;;5.82;2.65;;;16.20;96.70;;;;;;5008896;28;20863;-83
2023/10/22 07:46:51;;;;;;;8.30;3.53;;;16.20;96.70;;;;;;5009039;28;20045;-83
2023/10/22 07:49:23;;;;;;;4.82;2.75;;;16.30;96.70;;;;;;5016194;28;20046;-82
2023/10/22 07:51:54;;;;;;;7.78;2.95;;;16.30;96.70;;;;;;5006313;28;20519;-80
2023/10/22 07:54:24;;;;;;;5.28;3.15;;;16.50;96.70;;;;;;5008063;28;20050;-83
2023/10/22 07:56:53;;;;;;;3.53;2.83;;;16.50;96.70;;;;;;5007771;28;20530;-85
2023/10/22 07:59:23;;;;;;;6.68;2.65;;;16.50;96.70;;;;;;5006513;28;20400;-84
2023/10/22 08:01:54;;;;;;;5.57;3.45;;;16.60;96.70;;;;;;5015565;28;20046;-87
2023/10/22 08:04:23;;;;;;;3.70;3.10;;;16.70;96.70;;;;;;5004768;28;20827;-85
2023/10/22 08:06:52;;;;;;;6.88;3.60;;;16.60;96.70;;;;;;5006682;28;20140;-86
2023/10/22 08:09:21;;;;;;;3.08;2.78;;;16.60;96.70;;;;;;4989500;28;20042;-84
2023/10/22 08:11:53;;;;;;;8.70;5.45;;;16.60;96.70;;;;;;5004221;28;20042;-89
2023/10/22 08:14:22;;;;;;;6.03;4.90;;;16.70;96.70;;;;;;5007790;28;20122;-84
2023/10/22 08:16:51;;;;;;;6.68;4.97;;;16.70;96.70;;;;;;4991904;28;20057;-85
2023/10/22 08:19:22;;;;;;;8.55;7.75;;;16.70;96.70;;;;;;5008088;28;20129;-86
2023/10/22 08:21:53;;;;;;;7.57;6.70;;;16.80;96.70;;;;;;5003172;28;20058;-86
2023/10/22 08:24:22;;;;;;;8.60;4.03;;;16.90;96.70;;;;;;5005944;28;20084;-86
2023/10/22 08:26:54;;;;;;;4.72;3.10;;;16.90;96.70;;;;;;5003566;28;20088;-79
2023/10/22 08:29:25;;;;;;;3.28;2.70;;;16.80;96.70;;;;;;5004918;28;20049;-82
2023/10/22 08:31:56;;;;;;;5.07;2.95;;;16.80;96.70;;;;;;5005403;28;20534;-85
2023/10/22 08:34:26;;;;;;;2.92;2.38;;;16.90;96.70;;;;;;4999224;28;20050;-86
2023/10/22 08:36:56;;;;;;;5.53;2.80;;;17.00;96.70;;;;;;5009586;28;20048;-87
2023/10/22 08:39:26;;;;;;;4.90;2.67;;;17.10;96.70;;;;;;4987792;28;20038;-86
2023/10/22 08:42:01;;;;;;;5.22;2.20;;;17.10;96.70;;;;;;5004393;28;20046;-85
2023/10/22 08:44:39;;;;;;;5.50;2.17;;;17.20;96.70;;;;;;5007638;28;20054;-84
2023/10/22 08:47:09;;;;;;;2.85;1.92;;;17.20;96.70;;;;;;5007634;28;20042;-84
2023/10/22 08:49:42;;;;;;;3.40;1.77;;;17.20;96.70;;;;;;5007180;28;20053;-84
2023/10/22 08:52:13;;;;;;;5.53;1.98;;;17.20;96.70;;;;;;5008169;28;20069;-84
2023/10/22 08:54:46;;;;;;;4.35;1.77;;;17.30;96.70;;;;;;5006859;28;20077;-84
2023/10/22 08:57:16;;;;;;;4.57;1.63;;;17.40;96.70;;;;;;5006264;28;20061;-87
2023/10/22 08:59:45;;;;;;;4.05;1.98;;;17.50;96.70;;;;;;5007850;28;20042;-85
2023/10/22 09:02:16;;;;;;;4.25;1.92;;;17.60;96.70;;;;;;5008882;28;20049;-84
2023/10/22 09:04:48;;;;;;;5.35;1.88;;;17.70;96.70;;;;;;5005012;28;20053;-84
2023/10/22 09:07:18;;;;;;;4.45;1.85;;;17.80;96.70;;;;;;5006995;28;20050;-83
2023/10/22 09:09:50;;;;;;;5.35;2.33;;;17.90;96.70;;;;;;5007425;28;20523;-84
2023/10/22 09:12:23;;;;;;;3.08;2.00;;;18.00;96.70;;;;;;5006184;28;20068;-84
2023/10/22 09:14:59;;;;;;;3.35;2.28;;;18.10;96.70;;;;;;5005750;28;20470;-84
2023/10/22 09:17:30;;;;;;;3.20;2.10;;;18.20;96.70;;;;;;5005692;28;20403;-84
2023/10/22 09:20:21;;;;;;;3.55;2.08;;;18.30;96.70;;;;;;5001465;28;20049;-86
2023/10/22 09:22:50;;;;;;;4.85;2.08;;;18.50;96.70;;;;;;4999796;28;20050;-83
2023/10/22 09:25:20;;;;;;;5.10;2.25;;;18.60;96.70;;;;;;5004475;28;20073;-82
2023/10/22 09:27:49;;;;;;;4.78;2.63;;;18.70;96.70;;;;;;5012264;28;20050;-81
2023/10/22 09:30:31;;;;;;;4.35;1.95;;;19.00;96.70;;;;;;5005130;28;20084;-83
2023/10/22 09:33:00;;;;;;;6.32;2.30;;;19.10;96.70;;;;;;5005299;28;20062;-81
2023/10/22 09:35:32;;;;;;;3.83;2.30;;;19.10;96.70;;;;;;5004871;28;20056;-83
2023/10/22 09:38:01;;;;;;;5.45;2.33;;;19.20;96.70;;;;;;5005392;28;20129;-82
2023/10/22 09:40:33;;;;;;;5.97;2.15;;;19.30;96.70;;;;;;4989776;28;20152;-83
2023/10/22 09:43:04;;;;;;;5.93;2.50;;;19.40;96.70;;;;;;5022331;28;20045;-82
2023/10/22 09:45:34;;;;;;;4.82;1.95;;;19.40;96.70;;;;;;5008108;28;20054;-82
2023/10/22 09:48:09;;;;;;;5.68;2.28;;;19.50;96.70;;;;;;5006306;28;20046;-82
2023/10/22 09:50:46;;;;;;;6.38;2.35;;;19.60;96.70;;;;;;5007186;28;20046;-82
2023/10/22 09:53:17;;;;;;;6.95;2.15;;;19.70;96.70;;;;;;5007031;28;20073;-83
2023/10/22 09:55:49;;;;;;;7.32;2.33;;;19.80;96.70;;;;;;5010256;28;20053;-83
2023/10/22 09:58:29;;;;;;;8.23;2.10;;;20.00;96.70;;;;;;5009818;28;20140;-82
2023/10/22 10:01:02;;;;;;;7.43;2.13;;;20.00;96.70;;;;;;5009419;28;20050;-82
2023/10/22 10:03:33;;;;;;;4.95;1.83;;;20.00;96.70;;;;;;5016607;28;20735;-82
2023/10/22 10:06:07;;;;;;;5.18;2.05;;;20.00;96.70;;;;;;5008311;28;20105;-82
2023/10/22 10:08:39;;;;;;;7.80;2.50;;;20.30;96.70;;;;;;5008852;28;20124;-82
2023/10/22 10:11:10;;;;;;;3.97;2.10;;;20.50;96.70;;;;;;5018192;28;20042;-82
2023/10/22 10:13:40;;;;;;;6.82;2.60;;;20.70;96.70;;;;;;5009812;28;20053;-83
2023/10/22 10:16:08;;;;;;;4.63;2.00;;;20.80;96.70;;;;;;5009401;28;20365;-83
2023/10/22 10:18:58;;;;;;;7.63;2.45;;;20.90;96.70;;;;;;5010132;28;20070;-82
2023/10/22 10:21:47;;;;;;;7.43;2.03;;;21.00;96.70;;;;;;5009717;28;20503;-80
2023/10/22 10:24:20;;;;;;;4.82;2.13;;;21.00;96.70;;;;;;5024777;28;20042;-82
2023/10/22 10:26:50;;;;;;;4.93;1.90;;;21.00;96.70;;;;;;5010896;28;20054;-82
2023/10/22 10:29:20;;;;;;;4.78;1.73;;;21.00;96.70;;;;;;5017287;28;20038;-81
2023/10/22 10:31:50;;;;;;;5.18;1.98;;;20.90;96.70;;;;;;5009073;28;20074;-80
2023/10/22 10:34:31;;;;;;;5.80;1.90;;;21.10;96.70;;;;;;5011091;28;20125;-80
2023/10/22 10:37:11;;;;;;;5.95;1.73;;;21.20;96.70;;;;;;5007210;28;20132;-80
2023/10/22 10:39:42;;;;;;;9.10;4.53;;;21.40;96.70;;;;;;5009448;28;20050;-83
2023/10/22 10:42:12;;;;;;;7.60;3.13;;;21.50;96.70;;;;;;4989279;28;20046;-81
2023/10/22 10:45:05;;;;;;;3.78;1.40;;;21.60;96.70;;;;;;5008107;28;20046;-81
2023/10/22 10:47:34;;;;;;;3.83;1.63;;;21.70;96.70;;;;;;5013422;28;20054;-81
2023/10/22 10:50:05;;;;;;;7.97;2.20;;;21.80;96.70;;;;;;5008052;28;20046;-80
2023/10/22 10:53:02;;;;;;;3.58;1.02;;;21.90;96.70;;;;;;5007429;28;20049;-82
2023/10/22 10:55:34;;;;;;;3.38;0.88;;;22.10;96.70;;;;;;5007309;28;21270;-81
2023/10/22 10:58:03;;;;;;;2.63;0.82;;;22.30;96.70;;;;;;5006693;28;20462;-80
2023/10/22 11:00:31;;;;;;;4.78;1.23;;;22.00;96.70;;;;;;5006907;28;20041;-81
2023/10/22 11:03:01;;;;;;;4.40;0.95;;;22.00;96.70;;;;;;5014424;28;20103;-80
2023/10/22 11:05:32;;;;;;;4.95;1.25;;;21.90;96.70;;;;;;5006188;28;20052;-80
2023/10/22 11:08:04;;;;;;;3.47;0.90;;;22.20;96.70;;;;;;5007886;28;20120;-79
2023/10/22 11:10:32;;;;;;;4.85;0.75;;;22.30;96.70;;;;;;5006482;28;20496;-80
2023/10/22 11:13:05;;;;;;;5.50;0.90;;;22.40;96.70;;;;;;5014560;28;20092;-80
2023/10/22 11:15:35;;;;;;;6.10;1.38;;;22.40;96.70;;;;;;5007009;28;20056;-80
2023/10/22 11:18:05;;;;;;;5.95;1.10;;;22.50;96.70;;;;;;5006202;28;20049;-80
2023/10/22 11:20:34;;;;;;;5.10;1.15;;;22.60;96.70;;;;;;5007305;28;20049;-81
2023/10/22 11:23:04;;;;;;;4.15;0.98;;;22.70;96.70;;;;;;5007317;28;20038;-80
2023/10/22 11:25:32;;;;;;;3.03;1.10;;;22.70;96.70;;;;;;5006792;28;20533;-81
2023/10/22 11:28:00;;;;;;;5.85;1.00;;;22.70;96.70;;;;;;5006872;28;20093;-81
2023/10/22 11:30:36;;;;;;;3.10;1.05;;;22.70;96.70;;;;;;5007960;28;20053;-81
2023/10/22 11:33:06;;;;;;;3.47;0.63;;;22.60;96.70;;;;;;5008623;28;20555;-81
2023/10/22 11:35:37;;;;;;;7.20;1.50;;;22.80;96.70;;;;;;5007376;28;20399;-81
2023/10/22 11:38:07;;;;;;;5.60;1.00;;;22.90;96.70;;;;;;4998499;28;20080;-81
2023/10/22 11:40:39;;;;;;;3.97;0.70;;;22.70;96.70;;;;;;5008234;28;20068;-81
2023/10/22 11:43:14;;;;;;;5.50;0.80;;;22.50;96.70;;;;;;5007488;28;20050;-81
2023/10/22 11:45:51;;;;;;;5.55;1.45;;;22.60;96.70;;;;;;4989955;28;20054;-81
2023/10/22 11:48:21;;;;;;;4.55;1.20;;;22.90;96.70;;;;;;4983499;28;20152;-82
2023/10/22 11:50:50;;;;;;;2.38;0.80;;;22.90;96.70;;;;;;5007238;28;20056;-82
2023/10/22 11:53:19;;;;;;;3.25;1.00;;;23.00;96.70;;;;;;5007865;28;20057;-82
2023/10/22 11:55:47;;;;;;;4.70;0.77;;;23.10;96.70;;;;;;5007103;28;20503;-82
2023/10/22 11:58:19;;;;;;;4.07;0.80;;;23.20;96.70;;;;;;5007566;28;20100;-82
2023/10/22 12:00:59;;;;;;;5.57;0.75;;;23.00;96.70;;;;;;4998219;28;20051;-80
2023/10/22 12:03:27;;;;;;;3.28;0.73;;;23.00;96.70;;;;;;5012595;28;20065;-81
2023/10/22 12:05:56;;;;;;;8.70;1.05;;;22.90;96.70;;;;;;5006280;28;20460;-81
2023/10/22 12:08:25;;;;;;;3.08;0.60;;;22.70;96.70;;;;;;5007196;28;20085;-81
2023/10/22 12:10:53;;;;;;;5.57;0.80;;;22.90;96.70;;;;;;5005714;28;20141;-82
2023/10/22 12:13:21;;;;;;;4.65;0.70;;;23.10;96.70;;;;;;5008111;28;20046;-82
2023/10/22 12:15:49;;;;;;;1.73;0.35;;;23.30;96.70;;;;;;5005654;28;20042;-82
2023/10/22 12:18:17;;;;;;;4.25;0.73;;;23.30;96.70;;;;;;5014652;28;20046;-82
2023/10/22 12:20:46;;;;;;;2.88;0.68;;;23.20;96.70;;;;;;5006434;28;20111;-82
2023/10/22 12:23:31;;;;;;;3.63;0.57;;;23.20;96.70;;;;;;5005890;28;20045;-82
2023/10/22 12:26:16;;;;;;;5.43;0.77;;;23.30;96.70;;;;;;5003501;28;20603;-83
2023/10/22 12:28:44;;;;;;;4.47;0.85;;;23.50;96.70;;;;;;5003513;28;20046;-82
2023/10/22 12:31:12;;;;;;;4.72;0.73;;;23.60;96.70;;;;;;5006138;28;20053;-82
2023/10/22 12:33:40;;;;;;;2.55;0.40;;;23.60;96.70;;;;;;5006334;28;20052;-82
2023/10/22 12:36:09;;;;;;;5.30;1.20;;;23.70;96.70;;;;;;5006902;28;20100;-83
2023/10/22 12:38:38;;;;;;;2.75;0.45;;;23.80;96.70;;;;;;5006454;28;20048;-83
2023/10/22 12:41:06;;;;;;;3.80;0.45;;;23.60;96.70;;;;;;5006785;28;20068;-83
2023/10/22 12:43:34;;;;;;;3.28;0.55;;;23.50;96.70;;;;;;5007460;28;20136;-83
2023/10/22 12:46:03;;;;;;;3.92;0.70;;;23.30;96.70;;;;;;4999161;28;20438;-83
2023/10/22 12:48:31;;;;;;;4.57;0.80;;;23.30;96.70;;;;;;4990958;28;20569;-83
2023/10/22 12:50:59;;;;;;;4.28;1.13;;;23.30;96.70;;;;;;5007574;28;20050;-82
2023/10/22 12:53:29;;;;;;;3.58;0.45;;;23.30;96.70;;;;;;5005127;28;20738;-82
2023/10/22 12:56:00;;;;;;;6.25;0.80;;;23.10;96.70;;;;;;5005601;28;20042;-82
2023/10/22 12:58:31;;;;;;;2.50;0.55;;;22.90;96.70;;;;;;5001658;28;20050;-82
2023/10/22 13:01:04;;;;;;;5.65;0.90;;;22.80;96.70;;;;;;5007248;28;20403;-82
2023/10/22 13:03:34;;;;;;;5.00;0.70;;;22.90;96.70;;;;;;5005191;28;20588;-81